createdAt,value
2019-03-26T00:00:58.800Z,3.75
2019-03-26T00:01:58.776Z,3.78
2019-03-26T00:02:58.769Z,3.72
2019-03-26T00:04:05.698Z,3.75
2019-03-26T00:04:58.776Z,3.75
2019-03-26T00:05:58.690Z,3.80
2019-03-26T00:06:58.684Z,3.83
2019-03-26T00:07:58.632Z,3.79
2019-03-26T00:08:58.620Z,3.82
2019-03-26T00:09:58.577Z,3.76
2019-03-26T00:10:58.577Z,3.83
2019-03-26T00:11:58.545Z,3.76
2019-03-26T00:12:58.511Z,3.72
2019-03-26T00:13:58.494Z,3.75
2019-03-26T00:14:58.465Z,3.89
2019-03-26T00:15:58.462Z,3.76
2019-03-26T00:16:58.414Z,3.78
2019-03-26T00:17:58.408Z,3.80
2019-03-26T00:18:58.363Z,3.78
2019-03-26T00:19:58.353Z,3.78
2019-03-26T00:20:58.327Z,3.85
2019-03-26T00:21:58.296Z,3.72
2019-03-26T00:22:58.276Z,3.80
2019-03-26T00:23:58.326Z,3.72
2019-03-26T00:24:58.225Z,3.65
2019-03-26T00:25:58.199Z,3.65
2019-03-26T00:26:58.175Z,3.65
2019-03-26T00:27:58.170Z,3.53
2019-03-26T00:28:58.122Z,3.57
2019-03-26T00:29:58.102Z,3.58
2019-03-26T00:30:58.102Z,3.57
2019-03-26T00:31:58.076Z,3.58
2019-03-26T00:32:58.038Z,3.60
2019-03-26T00:33:58.018Z,3.47
2019-03-26T00:34:58.019Z,3.57
2019-03-26T00:35:57.969Z,3.50
2019-03-26T00:36:57.936Z,3.47
2019-03-26T00:37:57.914Z,3.47
2019-03-26T00:38:57.889Z,3.54
2019-03-26T00:39:57.869Z,3.61
2019-03-26T00:40:57.853Z,3.54
2019-03-26T00:41:57.814Z,3.54
2019-03-26T00:42:57.797Z,3.62
2019-03-26T00:43:57.783Z,3.62
2019-03-26T00:44:57.745Z,3.57
2019-03-26T00:45:57.723Z,3.52
2019-03-26T00:46:57.706Z,3.60
2019-03-26T00:48:06.536Z,3.54
2019-03-26T00:49:51.128Z,3.78
2019-03-26T00:50:50.995Z,3.75
2019-03-26T00:51:50.953Z,3.78
2019-03-26T00:52:50.944Z,3.94
2019-03-26T00:53:50.921Z,3.90
2019-03-26T00:54:50.892Z,3.90
2019-03-26T00:55:50.851Z,3.88
2019-03-26T00:56:50.841Z,3.90
2019-03-26T00:57:50.827Z,3.96
2019-03-26T00:58:50.796Z,3.94
2019-03-26T00:59:50.759Z,3.94
2019-03-26T01:00:50.771Z,3.94
2019-03-26T01:01:50.838Z,4.00
2019-03-26T01:02:50.711Z,3.94
2019-03-26T01:03:50.817Z,3.96
2019-03-26T01:04:50.650Z,3.94
2019-03-26T01:05:59.311Z,3.97
2019-03-26T01:07:43.979Z,3.94
2019-03-26T01:08:44.082Z,3.86
2019-03-26T01:09:43.919Z,3.92
2019-03-26T01:10:43.883Z,3.97
2019-03-26T01:11:43.867Z,3.97
2019-03-26T01:12:43.826Z,3.90
2019-03-26T01:13:43.819Z,3.94
2019-03-26T01:14:43.796Z,3.92
2019-03-26T01:15:43.779Z,4.00
2019-03-26T01:16:43.744Z,4.04
2019-03-26T01:17:43.737Z,4.04
2019-03-26T01:18:43.788Z,4.01
2019-03-26T01:19:43.672Z,4.00
2019-03-26T01:20:43.651Z,3.90
2019-03-26T01:21:43.625Z,4.00
2019-03-26T01:22:43.599Z,4.03
2019-03-26T01:23:43.587Z,3.96
2019-03-26T01:24:43.557Z,4.07
2019-03-26T01:25:43.528Z,4.00
2019-03-26T01:26:43.655Z,4.03
2019-03-26T01:27:43.484Z,3.98
2019-03-26T01:28:43.453Z,4.03
2019-03-26T01:29:43.422Z,3.97
2019-03-26T01:30:43.402Z,3.96
2019-03-26T01:31:43.476Z,4.00
2019-03-26T01:32:43.361Z,3.94
2019-03-26T01:33:43.329Z,3.89
2019-03-26T01:34:46.232Z,3.96
2019-03-26T01:35:43.299Z,3.92
2019-03-26T01:36:43.259Z,3.98
2019-03-26T01:37:43.241Z,3.92
2019-03-26T01:38:43.233Z,4.04
2019-03-26T01:39:43.182Z,4.03
2019-03-26T01:40:43.172Z,4.03
2019-03-26T01:41:43.159Z,4.12
2019-03-26T01:42:43.119Z,4.18
2019-03-26T01:43:43.092Z,4.07
2019-03-26T01:44:43.070Z,4.16
2019-03-26T01:45:43.041Z,4.16
2019-03-26T01:46:43.016Z,4.16
2019-03-26T01:47:42.993Z,4.24
2019-03-26T01:48:42.982Z,4.24
2019-03-26T01:49:42.975Z,4.16
2019-03-26T01:50:42.924Z,4.16
2019-03-26T01:51:42.905Z,4.26
2019-03-26T01:52:42.883Z,4.12
2019-03-26T01:53:42.870Z,4.16
2019-03-26T01:54:42.844Z,4.18
2019-03-26T01:55:42.806Z,4.16
2019-03-26T01:56:42.784Z,4.16
2019-03-26T01:57:42.762Z,4.18
2019-03-26T01:58:42.733Z,4.08
2019-03-26T01:59:42.715Z,4.06
2019-03-26T02:00:42.696Z,3.98
2019-03-26T02:01:42.660Z,4.08
2019-03-26T02:02:42.641Z,4.01
2019-03-26T02:03:42.631Z,4.00
2019-03-26T02:04:42.585Z,4.01
2019-03-26T02:05:42.564Z,4.00
2019-03-26T02:06:42.543Z,4.01
2019-03-26T02:07:42.521Z,3.98
2019-03-26T02:08:42.508Z,4.03
2019-03-26T02:09:42.486Z,4.00
2019-03-26T02:10:42.445Z,4.08
2019-03-26T02:11:42.434Z,4.03
2019-03-26T02:12:42.393Z,4.06
2019-03-26T02:13:42.372Z,3.96
2019-03-26T02:14:42.349Z,4.04
2019-03-26T02:15:42.334Z,4.10
2019-03-26T02:16:42.299Z,4.01
2019-03-26T02:17:42.295Z,4.01
2019-03-26T02:18:42.258Z,4.01
2019-03-26T02:19:42.231Z,3.98
2019-03-26T02:20:42.215Z,3.98
2019-03-26T02:21:42.181Z,3.96
2019-03-26T02:22:42.190Z,3.94
2019-03-26T02:23:42.135Z,3.79
2019-03-26T02:24:42.115Z,3.85
2019-03-26T02:25:42.102Z,3.78
2019-03-26T02:26:42.077Z,3.67
2019-03-26T02:27:42.044Z,3.54
2019-03-26T02:28:42.025Z,3.57
2019-03-26T02:29:42.005Z,3.47
2019-03-26T02:30:41.975Z,3.46
2019-03-26T02:31:41.942Z,3.47
2019-03-26T02:32:41.936Z,3.33
2019-03-26T02:33:41.903Z,3.39
2019-03-26T02:34:41.879Z,3.28
2019-03-26T02:35:41.852Z,3.25
2019-03-26T02:36:41.837Z,3.10
2019-03-26T02:37:41.798Z,3.03
2019-03-26T02:38:41.772Z,2.92
2019-03-26T02:39:41.851Z,3.05
2019-03-26T02:40:41.725Z,3.05
2019-03-26T02:41:41.715Z,2.97
2019-03-26T02:42:41.674Z,2.91
2019-03-26T02:43:41.666Z,2.98
2019-03-26T02:44:41.636Z,3.05
2019-03-26T02:45:41.622Z,2.97
2019-03-26T02:46:41.612Z,2.92
2019-03-26T02:47:41.565Z,2.88
2019-03-26T02:48:41.545Z,2.89
2019-03-26T02:49:41.522Z,2.85
2019-03-26T02:50:41.481Z,2.84
2019-03-26T02:51:41.487Z,2.71
2019-03-26T02:52:41.467Z,2.82
2019-03-26T02:53:41.436Z,2.77
2019-03-26T02:54:41.397Z,2.82
2019-03-26T02:55:41.368Z,2.76
2019-03-26T02:56:41.342Z,2.63
2019-03-26T02:57:41.332Z,2.61
2019-03-26T02:58:41.288Z,2.58
2019-03-26T02:59:41.300Z,2.63
2019-03-26T03:00:41.248Z,2.66
2019-03-26T03:01:41.220Z,2.67
2019-03-26T03:02:41.227Z,2.51
2019-03-26T03:03:41.179Z,2.51
2019-03-26T03:04:41.147Z,2.37
2019-03-26T03:05:41.138Z,2.28
2019-03-26T03:06:41.100Z,2.17
2019-03-26T03:07:41.077Z,2.23
2019-03-26T03:08:41.052Z,2.17
2019-03-26T03:09:41.034Z,2.15
2019-03-26T03:10:41.019Z,2.06
2019-03-26T03:11:40.978Z,2.04
2019-03-26T03:12:40.959Z,2.10
2019-03-26T03:13:40.927Z,2.04
2019-03-26T03:14:40.935Z,2.02
2019-03-26T03:15:40.877Z,1.94
2019-03-26T03:16:40.864Z,1.94
2019-03-26T03:17:40.834Z,1.93
2019-03-26T03:18:40.796Z,1.93
2019-03-26T03:19:40.792Z,1.87
2019-03-26T03:20:40.758Z,1.76
2019-03-26T03:21:40.733Z,1.73
2019-03-26T03:22:40.727Z,1.61
2019-03-26T03:23:40.684Z,1.57
2019-03-26T03:24:40.671Z,1.55
2019-03-26T03:25:40.638Z,1.40
2019-03-26T03:26:40.608Z,1.40
2019-03-26T03:27:40.579Z,1.32
2019-03-26T03:28:40.586Z,1.34
2019-03-26T03:29:40.582Z,1.43
2019-03-26T03:30:40.513Z,1.52
2019-03-26T03:31:40.484Z,1.54
2019-03-26T03:32:40.469Z,1.64
2019-03-26T03:33:40.439Z,1.64
2019-03-26T03:34:40.408Z,1.58
2019-03-26T03:35:52.033Z,1.50
2019-03-26T03:36:40.367Z,1.50
2019-03-26T03:37:40.357Z,1.44
2019-03-26T03:38:41.606Z,1.40
2019-03-26T03:39:40.313Z,1.34
2019-03-26T03:40:40.261Z,1.33
2019-03-26T03:41:40.244Z,1.25
2019-03-26T03:42:40.223Z,1.25
2019-03-26T03:43:40.185Z,1.32
2019-03-26T03:44:40.157Z,1.19
2019-03-26T03:45:40.144Z,1.16
2019-03-26T03:46:40.133Z,1.08
2019-03-26T03:47:40.094Z,1.04
2019-03-26T03:48:40.065Z,1.01
2019-03-26T03:49:40.035Z,0.98
2019-03-26T03:50:40.019Z,0.98
2019-03-26T03:51:39.991Z,1.01
2019-03-26T03:52:39.967Z,1.01
2019-03-26T03:53:39.937Z,1.04
2019-03-26T03:54:39.905Z,1.14
2019-03-26T03:55:39.897Z,1.19
2019-03-26T03:56:39.857Z,1.24
2019-03-26T03:57:39.849Z,1.29
2019-03-26T03:58:39.820Z,1.29
2019-03-26T03:59:39.803Z,1.33
2019-03-26T04:00:39.763Z,1.29
2019-03-26T04:01:39.751Z,1.33
2019-03-26T04:02:39.706Z,1.42
2019-03-26T04:03:39.697Z,1.37
2019-03-26T04:04:39.661Z,1.51
2019-03-26T04:05:39.657Z,1.61
2019-03-26T04:06:39.639Z,1.54
2019-03-26T04:07:39.612Z,1.71
2019-03-26T04:08:39.581Z,1.71
2019-03-26T04:09:39.535Z,1.69
2019-03-26T04:10:39.527Z,1.69
2019-03-26T04:11:39.495Z,1.68
2019-03-26T04:12:39.466Z,1.71
2019-03-26T04:13:39.492Z,1.76
2019-03-26T04:14:39.411Z,1.89
2019-03-26T04:15:39.388Z,1.90
2019-03-26T04:16:39.373Z,1.93
2019-03-26T04:17:39.351Z,1.80
2019-03-26T04:18:39.316Z,1.75
2019-03-26T04:19:39.299Z,1.83
2019-03-26T04:20:39.286Z,1.85
2019-03-26T04:21:39.245Z,1.80
2019-03-26T04:22:39.209Z,1.76
2019-03-26T04:23:39.197Z,1.75
2019-03-26T04:24:39.188Z,1.69
2019-03-26T04:25:39.151Z,1.55
2019-03-26T04:26:39.125Z,1.52
2019-03-26T04:27:39.087Z,1.58
2019-03-26T04:28:39.070Z,1.58
2019-03-26T04:29:39.036Z,1.58
2019-03-26T04:30:39.013Z,1.57
2019-03-26T04:31:39.004Z,1.57
2019-03-26T04:32:38.966Z,1.58
2019-03-26T04:33:38.938Z,1.58
2019-03-26T04:34:38.916Z,1.68
2019-03-26T04:35:38.895Z,1.71
2019-03-26T04:36:38.869Z,1.80
2019-03-26T04:37:38.833Z,1.85
2019-03-26T04:38:39.069Z,1.93
2019-03-26T04:39:38.796Z,1.93
2019-03-26T04:40:38.770Z,1.90
2019-03-26T04:41:38.767Z,1.89
2019-03-26T04:42:38.719Z,1.85
2019-03-26T04:43:38.734Z,1.82
2019-03-26T04:44:38.693Z,1.76
2019-03-26T04:45:38.642Z,1.73
2019-03-26T04:46:38.638Z,1.75
2019-03-26T04:47:38.600Z,1.57
2019-03-26T04:48:38.642Z,1.60
2019-03-26T04:49:38.562Z,1.58
2019-03-26T04:50:38.520Z,1.58
2019-03-26T04:51:38.501Z,1.55
2019-03-26T04:52:38.473Z,1.42
2019-03-26T04:53:38.458Z,1.36
2019-03-26T04:54:38.431Z,1.37
2019-03-26T04:55:38.393Z,1.39
2019-03-26T04:56:38.374Z,1.39
2019-03-26T04:57:38.361Z,1.43
2019-03-26T04:58:38.332Z,1.29
2019-03-26T04:59:38.300Z,1.26
2019-03-26T05:00:38.268Z,1.26
2019-03-26T05:01:38.258Z,1.33
2019-03-26T05:02:38.234Z,1.29
2019-03-26T05:03:38.203Z,1.12
2019-03-26T05:04:38.183Z,1.07
2019-03-26T05:05:38.173Z,1.03
2019-03-26T05:06:38.519Z,0.94
2019-03-26T05:07:38.138Z,0.94
2019-03-26T05:08:38.077Z,0.89
2019-03-26T05:09:38.055Z,0.88
2019-03-26T05:10:38.029Z,0.88
2019-03-26T05:11:38.009Z,0.79
2019-03-26T05:12:37.979Z,0.92
2019-03-26T05:13:37.998Z,0.86
2019-03-26T05:14:37.928Z,0.90
2019-03-26T05:15:37.918Z,0.90
2019-03-26T05:16:37.873Z,1.00
2019-03-26T05:17:37.853Z,1.06
2019-03-26T05:18:37.831Z,1.18
2019-03-26T05:19:37.806Z,1.28
2019-03-26T05:20:37.773Z,1.44
2019-03-26T05:21:37.770Z,1.54
2019-03-26T05:22:37.725Z,1.57
2019-03-26T05:23:37.699Z,1.75
2019-03-26T05:24:37.671Z,1.75
2019-03-26T05:25:37.651Z,1.85
2019-03-26T05:26:37.632Z,1.82
2019-03-26T05:27:45.296Z,1.87
2019-03-26T05:28:37.594Z,1.83
2019-03-26T05:29:37.557Z,1.90
2019-03-26T05:30:37.538Z,1.87
2019-03-26T05:31:37.496Z,1.87
2019-03-26T05:32:37.486Z,1.80
2019-03-26T05:33:37.453Z,1.85
2019-03-26T05:34:37.429Z,1.90
2019-03-26T05:35:37.409Z,1.85
2019-03-26T05:36:50.382Z,1.83
2019-03-26T05:37:37.360Z,1.87
2019-03-26T05:38:37.351Z,1.94
2019-03-26T05:39:37.300Z,1.98
2019-03-26T05:40:37.290Z,2.02
2019-03-26T05:41:37.261Z,1.94
2019-03-26T05:42:37.272Z,1.99
2019-03-26T05:43:37.210Z,2.04
2019-03-26T05:44:37.184Z,2.09
2019-03-26T05:45:37.159Z,2.12
2019-03-26T05:46:37.136Z,2.16
2019-03-26T05:47:37.109Z,2.22
2019-03-26T05:48:37.093Z,2.27
2019-03-26T05:49:37.075Z,2.31
2019-03-26T05:50:37.052Z,2.35
2019-03-26T05:51:37.008Z,2.37
2019-03-26T05:52:36.993Z,2.37
2019-03-26T05:53:36.964Z,2.46
2019-03-26T05:54:36.934Z,2.49
2019-03-26T05:55:36.918Z,2.48
2019-03-26T05:56:36.896Z,2.58
2019-03-26T05:57:36.873Z,2.56
2019-03-26T05:58:36.879Z,2.53
2019-03-26T05:59:36.818Z,2.58
2019-03-26T06:00:36.787Z,2.63
2019-03-26T06:01:36.774Z,2.61
2019-03-26T06:02:37.617Z,2.69
2019-03-26T06:03:36.716Z,2.70
2019-03-26T06:04:36.687Z,2.70
2019-03-26T06:05:36.690Z,2.81
2019-03-26T06:06:36.645Z,2.81
2019-03-26T06:07:36.614Z,2.74
2019-03-26T06:08:36.594Z,2.81
2019-03-26T06:09:36.590Z,2.84
2019-03-26T06:10:36.554Z,2.87
2019-03-26T06:11:36.519Z,2.88
2019-03-26T06:12:36.494Z,2.91
2019-03-26T06:13:36.476Z,2.97
2019-03-26T06:14:36.442Z,2.98
2019-03-26T06:15:36.420Z,3.06
2019-03-26T06:16:38.658Z,3.06
2019-03-26T06:17:36.380Z,3.06
2019-03-26T06:18:36.348Z,3.15
2019-03-26T06:19:36.349Z,3.21
2019-03-26T06:20:36.313Z,3.23
2019-03-26T06:21:36.288Z,3.25
2019-03-26T06:22:36.277Z,3.33
2019-03-26T06:23:36.238Z,3.36
2019-03-26T06:24:36.204Z,3.40
2019-03-26T06:25:36.189Z,3.52
2019-03-26T06:26:36.156Z,3.40
2019-03-26T06:27:36.139Z,3.46
2019-03-26T06:28:36.111Z,3.62
2019-03-26T06:29:36.105Z,3.60
2019-03-26T06:30:36.055Z,3.71
2019-03-26T06:31:36.057Z,3.76
2019-03-26T06:32:36.020Z,3.75
2019-03-26T06:33:35.993Z,3.82
2019-03-26T06:34:35.968Z,3.90
2019-03-26T06:35:35.961Z,3.96
2019-03-26T06:36:35.994Z,4.04
2019-03-26T06:37:35.916Z,4.07
2019-03-26T06:38:35.884Z,4.19
2019-03-26T06:39:35.844Z,4.19
2019-03-26T06:40:35.830Z,4.24
2019-03-26T06:41:35.817Z,4.22
2019-03-26T06:42:35.780Z,4.33
2019-03-26T06:43:35.777Z,4.25
2019-03-26T06:44:35.749Z,4.28
2019-03-26T06:45:35.713Z,4.32
2019-03-26T06:46:35.687Z,4.42
2019-03-26T06:47:35.684Z,4.43
2019-03-26T06:48:35.642Z,4.54
2019-03-26T06:49:35.630Z,4.54
2019-03-26T06:50:35.594Z,4.57
2019-03-26T06:51:35.563Z,4.64
2019-03-26T06:52:35.541Z,4.59
2019-03-26T06:53:35.528Z,4.67
2019-03-26T06:54:35.494Z,4.62
2019-03-26T06:55:35.475Z,4.65
2019-03-26T06:56:35.455Z,4.70
2019-03-26T06:57:36.126Z,4.79
2019-03-26T06:58:35.426Z,4.84
2019-03-26T06:59:35.402Z,4.88
2019-03-26T07:00:35.349Z,4.98
2019-03-26T07:01:35.335Z,5.05
2019-03-26T07:02:35.309Z,5.02
2019-03-26T07:03:35.303Z,4.98
2019-03-26T07:04:35.287Z,4.91
2019-03-26T07:05:35.241Z,4.96
2019-03-26T07:06:35.217Z,4.95
2019-03-26T07:07:35.216Z,5.04
2019-03-26T07:08:35.170Z,5.01
2019-03-26T07:09:35.183Z,5.05
2019-03-26T07:10:35.120Z,5.16
2019-03-26T07:11:35.109Z,4.95
2019-03-26T07:12:35.080Z,5.02
2019-03-26T07:13:35.055Z,5.09
2019-03-26T07:14:35.033Z,5.07
2019-03-26T07:15:35.001Z,5.16
2019-03-26T07:16:34.977Z,5.37
2019-03-26T07:17:34.968Z,5.60
2019-03-26T07:18:34.939Z,5.63
2019-03-26T07:19:34.932Z,5.83
2019-03-26T07:20:34.897Z,5.93
2019-03-26T07:21:34.875Z,6.11
2019-03-26T07:22:34.850Z,6.13
2019-03-26T07:23:34.824Z,6.26
2019-03-26T07:24:34.794Z,6.51
2019-03-26T07:25:34.763Z,6.95
2019-03-26T07:26:34.746Z,7.19
2019-03-26T07:27:34.726Z,7.59
2019-03-26T07:28:34.695Z,7.69
2019-03-26T07:29:34.679Z,7.71
2019-03-26T07:30:34.676Z,7.53
2019-03-26T07:31:34.631Z,7.41
2019-03-26T07:32:34.637Z,7.34
2019-03-26T07:33:34.593Z,7.26
2019-03-26T07:34:34.589Z,7.07
2019-03-26T07:35:34.542Z,7.09
2019-03-26T07:36:34.564Z,7.20
2019-03-26T07:37:44.504Z,7.20
2019-03-26T07:38:34.497Z,7.74
2019-03-26T07:39:34.458Z,7.56
2019-03-26T07:40:34.445Z,7.55
2019-03-26T07:41:34.464Z,7.42
2019-03-26T07:42:34.387Z,7.45
2019-03-26T07:43:34.390Z,7.38
2019-03-26T07:44:34.343Z,7.47
2019-03-26T07:45:34.322Z,7.52
2019-03-26T07:46:34.311Z,7.66
2019-03-26T07:47:34.282Z,7.52
2019-03-26T07:48:34.259Z,7.63
2019-03-26T07:49:34.244Z,7.55
2019-03-26T07:50:34.218Z,7.50
2019-03-26T07:51:34.196Z,7.53
2019-03-26T07:52:34.178Z,7.71
2019-03-26T07:53:34.147Z,7.67
2019-03-26T07:54:34.127Z,7.55
2019-03-26T07:55:34.104Z,7.59
2019-03-26T07:56:34.088Z,7.42
2019-03-26T07:57:34.072Z,7.45
2019-03-26T07:58:34.059Z,7.41
2019-03-26T07:59:34.034Z,7.38
2019-03-26T08:00:34.031Z,7.41
2019-03-26T08:01:33.984Z,7.45
2019-03-26T08:02:33.955Z,7.60
2019-03-26T08:03:33.952Z,7.66
2019-03-26T08:04:33.935Z,7.62
2019-03-26T08:05:33.896Z,7.84
2019-03-26T08:06:33.875Z,7.96
2019-03-26T08:07:33.862Z,7.94
2019-03-26T08:08:33.904Z,7.67
2019-03-26T08:09:33.888Z,7.52
2019-03-26T08:10:33.802Z,7.41
2019-03-26T08:11:33.774Z,7.56
2019-03-26T08:12:33.745Z,7.71
2019-03-26T08:13:33.735Z,7.79
2019-03-26T08:14:33.715Z,7.69
2019-03-26T08:15:33.692Z,7.85
2019-03-26T08:16:33.681Z,7.90
2019-03-26T08:17:33.672Z,7.74
2019-03-26T08:18:33.632Z,7.75
2019-03-26T08:19:33.600Z,7.66
2019-03-26T08:20:33.577Z,7.72
2019-03-26T08:21:33.552Z,7.77
2019-03-26T08:22:33.558Z,7.72
2019-03-26T08:23:33.524Z,7.77
2019-03-26T08:24:33.501Z,7.85
2019-03-26T08:25:33.954Z,7.85
2019-03-26T08:26:33.463Z,7.99
2019-03-26T08:27:33.431Z,8.14
2019-03-26T08:28:33.423Z,8.08
2019-03-26T08:29:33.398Z,8.11
2019-03-26T08:30:33.371Z,7.94
2019-03-26T08:31:33.349Z,7.78
2019-03-26T08:32:33.317Z,7.81
2019-03-26T08:33:33.337Z,7.84
2019-03-26T08:34:33.278Z,7.90
2019-03-26T08:35:33.274Z,8.10
2019-03-26T08:36:33.276Z,8.12
2019-03-26T08:37:33.251Z,8.03
2019-03-26T08:38:33.652Z,7.89
2019-03-26T08:39:33.177Z,7.85
2019-03-26T08:40:33.155Z,7.94
2019-03-26T08:41:33.141Z,8.04
2019-03-26T08:42:33.117Z,7.97
2019-03-26T08:43:33.104Z,8.00
2019-03-26T08:44:33.088Z,8.12
2019-03-26T08:45:33.069Z,8.08
2019-03-26T08:46:33.040Z,8.20
2019-03-26T08:47:33.015Z,8.32
2019-03-26T08:48:32.992Z,8.40
2019-03-26T08:49:32.991Z,8.47
2019-03-26T08:50:32.955Z,8.47
2019-03-26T08:51:32.936Z,8.65
2019-03-26T08:52:32.924Z,8.76
2019-03-26T08:53:32.902Z,8.69
2019-03-26T08:54:32.869Z,8.78
2019-03-26T08:55:32.850Z,8.47
2019-03-26T08:56:32.834Z,8.25
2019-03-26T08:57:32.818Z,8.28
2019-03-26T08:58:32.795Z,8.15
2019-03-26T08:59:32.769Z,8.08
2019-03-26T09:00:32.745Z,8.07
2019-03-26T09:01:32.761Z,8.14
2019-03-26T09:02:32.726Z,8.39
2019-03-26T09:03:32.704Z,8.47
2019-03-26T09:04:32.663Z,8.62
2019-03-26T09:05:32.646Z,8.42
2019-03-26T09:06:32.625Z,8.12
2019-03-26T09:07:32.603Z,8.28
2019-03-26T09:08:32.591Z,8.42
2019-03-26T09:09:32.556Z,8.48
2019-03-26T09:10:32.540Z,8.50
2019-03-26T09:11:32.521Z,8.55
2019-03-26T09:12:32.505Z,8.58
2019-03-26T09:13:32.480Z,8.63
2019-03-26T09:14:32.457Z,8.71
2019-03-26T09:15:32.442Z,8.84
2019-03-26T09:16:32.415Z,8.99
2019-03-26T09:17:32.414Z,9.18
2019-03-26T09:18:33.085Z,9.15
2019-03-26T09:19:32.374Z,8.96
2019-03-26T09:20:32.332Z,8.96
2019-03-26T09:21:32.755Z,8.83
2019-03-26T09:22:32.299Z,8.90
2019-03-26T09:23:32.281Z,8.96
2019-03-26T09:24:32.255Z,8.81
2019-03-26T09:25:32.226Z,8.69
2019-03-26T09:26:32.207Z,8.55
2019-03-26T09:27:32.195Z,8.63
2019-03-26T09:28:32.175Z,8.69
2019-03-26T09:29:32.191Z,8.84
2019-03-26T09:30:32.136Z,8.90
2019-03-26T09:31:32.122Z,9.02
2019-03-26T09:32:32.098Z,8.91
2019-03-26T09:33:32.090Z,8.73
2019-03-26T09:34:32.057Z,8.54
2019-03-26T09:35:32.056Z,8.57
2019-03-26T09:36:32.021Z,8.58
2019-03-26T09:37:31.995Z,8.57
2019-03-26T09:38:38.831Z,8.50
2019-03-26T09:39:31.950Z,8.63
2019-03-26T09:40:31.941Z,8.58
2019-03-26T09:41:31.931Z,8.71
2019-03-26T09:42:31.899Z,8.76
2019-03-26T09:43:31.873Z,8.88
2019-03-26T09:44:31.852Z,8.88
2019-03-26T09:45:31.835Z,8.83
2019-03-26T09:46:31.832Z,8.96
2019-03-26T09:47:31.803Z,8.88
2019-03-26T09:48:31.776Z,8.84
2019-03-26T09:49:31.747Z,8.76
2019-03-26T09:50:31.725Z,8.76
2019-03-26T09:51:31.716Z,8.62
2019-03-26T09:52:31.715Z,8.62
2019-03-26T09:53:31.683Z,8.60
2019-03-26T09:54:31.652Z,8.33
2019-03-26T09:55:31.626Z,8.29
2019-03-26T09:56:32.201Z,8.11
2019-03-26T09:57:31.629Z,8.14
2019-03-26T09:58:31.563Z,8.14
2019-03-26T09:59:31.542Z,8.10
2019-03-26T10:00:31.578Z,8.12
2019-03-26T10:01:31.502Z,8.00
2019-03-26T10:02:31.487Z,7.99
2019-03-26T10:03:31.464Z,7.93
2019-03-26T10:04:31.454Z,7.94
2019-03-26T10:05:31.430Z,7.78
2019-03-26T10:06:31.399Z,7.77
2019-03-26T10:07:31.410Z,7.56
2019-03-26T10:08:31.355Z,7.53
2019-03-26T10:09:31.349Z,7.42
2019-03-26T10:10:32.153Z,7.42
2019-03-26T10:11:31.290Z,7.38
2019-03-26T10:12:31.277Z,7.37
2019-03-26T10:13:31.280Z,7.35
2019-03-26T10:14:31.227Z,7.23
2019-03-26T10:15:31.227Z,7.23
2019-03-26T10:16:31.200Z,7.23
2019-03-26T10:17:31.157Z,7.26
2019-03-26T10:18:31.138Z,7.24
2019-03-26T10:19:31.147Z,7.23
2019-03-26T10:20:31.109Z,7.37
2019-03-26T10:21:31.076Z,7.29
2019-03-26T10:22:31.071Z,7.31
2019-03-26T10:23:31.061Z,7.29
2019-03-26T10:24:31.020Z,7.31
2019-03-26T10:25:30.989Z,7.24
2019-03-26T10:26:30.963Z,7.23
2019-03-26T10:27:30.934Z,7.24
2019-03-26T10:28:30.909Z,7.27
2019-03-26T10:29:31.315Z,7.35
2019-03-26T10:30:30.874Z,7.40
2019-03-26T10:31:30.857Z,7.37
2019-03-26T10:32:30.845Z,7.42
2019-03-26T10:33:30.813Z,7.42
2019-03-26T10:34:30.794Z,7.55
2019-03-26T10:35:30.806Z,7.56
2019-03-26T10:36:30.740Z,7.55
2019-03-26T10:37:30.715Z,7.62
2019-03-26T10:38:30.775Z,7.62
2019-03-26T10:39:30.673Z,7.62
2019-03-26T10:40:30.644Z,7.75
2019-03-26T10:41:30.615Z,7.74
2019-03-26T10:42:30.606Z,7.72
2019-03-26T10:43:30.581Z,7.93
2019-03-26T10:44:30.576Z,8.02
2019-03-26T10:45:30.589Z,8.15
2019-03-26T10:46:30.522Z,8.12
2019-03-26T10:47:30.493Z,8.10
2019-03-26T10:48:31.890Z,8.28
2019-03-26T10:49:30.441Z,8.48
2019-03-26T10:50:30.426Z,8.48
2019-03-26T10:51:30.407Z,8.60
2019-03-26T10:52:34.003Z,8.53
2019-03-26T10:53:30.373Z,8.50
2019-03-26T10:54:30.341Z,8.53
2019-03-26T10:55:30.322Z,8.60
2019-03-26T10:56:32.638Z,8.75
2019-03-26T10:57:30.286Z,8.78
2019-03-26T10:58:30.257Z,8.87
2019-03-26T10:59:30.238Z,9.04
2019-03-26T11:00:30.213Z,9.09
2019-03-26T11:01:30.197Z,9.09
2019-03-26T11:02:30.178Z,9.15
2019-03-26T11:03:30.174Z,9.27
2019-03-26T11:04:30.280Z,9.21
2019-03-26T11:05:30.145Z,9.06
2019-03-26T11:06:30.113Z,8.99
2019-03-26T11:07:30.075Z,9.05
2019-03-26T11:08:30.077Z,9.13
2019-03-26T11:09:30.033Z,9.27
2019-03-26T11:10:30.023Z,9.06
2019-03-26T11:11:30.009Z,9.39
2019-03-26T11:12:30.016Z,10.24
2019-03-26T11:13:29.958Z,11.14
2019-03-26T11:14:31.811Z,11.89
2019-03-26T11:15:29.921Z,12.52
2019-03-26T11:16:29.904Z,13.43
2019-03-26T11:17:29.904Z,14.24
2019-03-26T11:18:29.875Z,14.28
2019-03-26T11:19:29.858Z,13.79
2019-03-26T11:20:29.844Z,13.12
2019-03-26T11:21:29.868Z,13.22
2019-03-26T11:22:30.627Z,12.71
2019-03-26T11:23:29.834Z,12.20
2019-03-26T11:24:29.789Z,11.50
2019-03-26T11:25:29.772Z,10.94
2019-03-26T11:26:29.776Z,10.66
2019-03-26T11:27:29.749Z,10.76
2019-03-26T11:28:29.757Z,11.14
2019-03-26T11:29:29.728Z,11.50
2019-03-26T11:30:29.753Z,11.85
2019-03-26T11:31:30.275Z,11.94
2019-03-26T11:32:29.731Z,12.48
2019-03-26T11:33:29.689Z,12.78
2019-03-26T11:34:29.658Z,12.81
2019-03-26T11:35:29.628Z,12.62
2019-03-26T11:36:29.628Z,12.85
2019-03-26T11:37:29.619Z,12.81
2019-03-26T11:38:29.604Z,12.49
2019-03-26T11:39:32.936Z,12.77
2019-03-26T11:40:29.586Z,12.79
2019-03-26T11:41:29.610Z,12.96
2019-03-26T11:42:29.568Z,13.14
2019-03-26T11:43:29.538Z,13.07
2019-03-26T11:44:29.533Z,13.46
2019-03-26T11:45:29.525Z,13.44
2019-03-26T11:46:29.503Z,13.43
2019-03-26T11:47:29.491Z,12.88
2019-03-26T11:48:29.526Z,12.01
2019-03-26T11:49:29.482Z,11.44
2019-03-26T11:50:29.476Z,10.96
2019-03-26T11:51:29.458Z,11.03
2019-03-26T11:52:29.449Z,10.73
2019-03-26T11:53:29.439Z,10.17
2019-03-26T11:54:29.438Z,10.00
2019-03-26T11:55:29.414Z,9.91
2019-03-26T11:56:29.410Z,9.75
2019-03-26T11:57:29.390Z,9.70
2019-03-26T11:58:30.726Z,9.75
2019-03-26T11:59:29.358Z,9.71
2019-03-26T12:00:29.345Z,9.83
2019-03-26T12:01:29.326Z,9.57
2019-03-26T12:02:29.325Z,9.48
2019-03-26T12:03:29.304Z,9.50
2019-03-26T12:04:29.300Z,9.68
2019-03-26T12:05:29.288Z,9.78
2019-03-26T12:06:29.255Z,9.78
2019-03-26T12:07:29.236Z,9.79
2019-03-26T12:08:29.221Z,9.61
2019-03-26T12:09:29.198Z,9.53
2019-03-26T12:10:29.189Z,9.42
2019-03-26T12:11:29.198Z,9.40
2019-03-26T12:12:29.148Z,9.27
2019-03-26T12:13:29.135Z,9.12
2019-03-26T12:14:29.131Z,9.13
2019-03-26T12:15:29.096Z,9.05
2019-03-26T12:16:29.080Z,8.99
2019-03-26T12:17:29.100Z,8.96
2019-03-26T12:18:29.052Z,9.10
2019-03-26T12:19:29.031Z,9.02
2019-03-26T12:20:29.010Z,9.10
2019-03-26T12:21:28.988Z,8.94
2019-03-26T12:22:31.350Z,8.94
2019-03-26T12:23:28.969Z,8.94
2019-03-26T12:24:28.943Z,8.96
2019-03-26T12:25:28.911Z,8.96
2019-03-26T12:26:28.895Z,8.97
2019-03-26T12:27:28.886Z,8.96
2019-03-26T12:28:28.873Z,8.94
2019-03-26T12:29:28.834Z,8.84
2019-03-26T12:30:28.828Z,8.88
2019-03-26T12:31:28.820Z,8.93
2019-03-26T12:32:28.809Z,8.96
2019-03-26T12:33:28.791Z,9.20
2019-03-26T12:34:28.742Z,9.09
2019-03-26T12:35:28.729Z,8.99
2019-03-26T12:36:39.364Z,8.86
2019-03-26T12:37:28.697Z,8.96
2019-03-26T12:38:28.668Z,8.88
2019-03-26T12:39:28.674Z,8.88
2019-03-26T12:40:28.626Z,8.88
2019-03-26T12:41:28.608Z,8.94
2019-03-26T12:42:28.593Z,9.09
2019-03-26T12:43:28.579Z,9.16
2019-03-26T12:44:28.557Z,9.25
2019-03-26T12:45:28.533Z,9.24
2019-03-26T12:46:28.528Z,9.23
2019-03-26T12:47:28.494Z,9.43
2019-03-26T12:48:28.475Z,9.50
2019-03-26T12:49:28.471Z,9.52
2019-03-26T12:50:28.439Z,9.52
2019-03-26T12:51:28.468Z,9.49
2019-03-26T12:52:28.414Z,9.58
2019-03-26T12:53:28.375Z,9.56
2019-03-26T12:54:28.356Z,9.45
2019-03-26T12:55:28.358Z,9.45
2019-03-26T12:56:28.341Z,9.49
2019-03-26T12:57:28.296Z,9.49
2019-03-26T12:58:32.079Z,9.39
2019-03-26T12:59:28.261Z,9.20
2019-03-26T13:00:28.258Z,9.15
2019-03-26T13:01:28.219Z,9.16
2019-03-26T13:02:28.219Z,9.21
2019-03-26T13:03:28.189Z,9.38
2019-03-26T13:04:28.164Z,9.50
2019-03-26T13:05:28.148Z,9.49
2019-03-26T13:06:28.133Z,9.61
2019-03-26T13:07:28.130Z,9.53
2019-03-26T13:08:28.083Z,9.35
2019-03-26T13:09:28.076Z,9.39
2019-03-26T13:10:28.051Z,9.35
2019-03-26T13:11:28.029Z,9.30
2019-03-26T13:12:28.057Z,9.12
2019-03-26T13:13:27.991Z,9.20
2019-03-26T13:14:27.989Z,9.23
2019-03-26T13:15:27.947Z,9.28
2019-03-26T13:16:27.931Z,9.32
2019-03-26T13:17:27.912Z,9.43
2019-03-26T13:18:27.894Z,9.45
2019-03-26T13:19:27.884Z,9.40